Time;durP1;ratioP1;P1;durP2;ratioP2;P2;SDS_P1;SDS_P2;PMS_P1;PMS_P2;Temp;Humidity;BMP_temperature;BMP_pressure;BME280_temperature;BME280_humidity;BME280_pressure;Samples;Min_cycle;Max_cycle;Signal;HPM_P1;HPM_P2
2023/05/10 00:01:38;;;;;;;20.45;13.70;;;13.50;99.90;;;;;;5056773;28;20313;-63
2023/05/10 00:04:04;;;;;;;22.63;14.23;;;13.40;99.90;;;;;;5039133;28;20052;-60
2023/05/10 00:06:30;;;;;;;22.63;14.98;;;13.30;99.90;;;;;;5056035;28;20033;-61
2023/05/10 00:08:56;;;;;;;24.02;15.13;;;13.40;99.90;;;;;;5055998;28;20041;-62
2023/05/10 00:11:21;;;;;;;22.42;15.38;;;13.30;99.90;;;;;;5056028;28;20040;-60
2023/05/10 00:13:47;;;;;;;24.27;15.45;;;13.30;99.90;;;;;;5055987;28;20044;-61
2023/05/10 00:16:13;;;;;;;21.27;15.85;;;13.30;99.90;;;;;;5056504;28;20045;-61
2023/05/10 00:18:40;;;;;;;25.10;15.02;;;13.30;99.90;;;;;;5056648;28;20301;-64
2023/05/10 00:21:06;;;;;;;21.80;14.20;;;13.30;99.90;;;;;;5056645;28;20343;-60
2023/05/10 00:23:32;;;;;;;25.80;15.43;;;13.30;99.90;;;;;;5055751;28;20072;-59
2023/05/10 00:25:58;;;;;;;23.33;14.88;;;13.40;99.90;;;;;;5055873;28;20048;-60
2023/05/10 00:28:23;;;;;;;28.75;15.98;;;13.50;99.90;;;;;;5056490;28;20037;-60
2023/05/10 00:30:49;;;;;;;23.50;14.85;;;13.60;99.90;;;;;;5056502;28;20028;-60
2023/05/10 00:33:15;;;;;;;26.35;14.88;;;13.60;99.90;;;;;;5056499;28;20432;-60
2023/05/10 00:35:41;;;;;;;22.42;14.88;;;13.40;99.90;;;;;;5056387;28;20044;-60
2023/05/10 00:38:08;;;;;;;21.15;13.88;;;13.40;99.90;;;;;;5056646;28;20312;-59
2023/05/10 00:40:36;;;;;;;23.52;14.85;;;13.40;99.90;;;;;;5056363;28;20110;-59
2023/05/10 00:43:05;;;;;;;24.25;13.45;;;13.30;99.90;;;;;;5072265;28;20040;-59
2023/05/10 00:45:32;;;;;;;22.65;14.55;;;13.30;99.90;;;;;;5056437;28;20092;-60
2023/05/10 00:48:02;;;;;;;27.15;15.38;;;13.40;99.90;;;;;;5056306;28;20021;-67
2023/05/10 00:50:32;;;;;;;24.05;15.45;;;13.40;99.90;;;;;;5055520;28;20456;-64
2023/05/10 00:53:00;;;;;;;21.10;14.27;;;13.40;99.90;;;;;;5056447;28;20116;-60
2023/05/10 00:55:26;;;;;;;23.23;15.13;;;13.40;99.90;;;;;;5056255;28;20022;-59
2023/05/10 00:57:53;;;;;;;23.92;16.10;;;13.40;99.90;;;;;;5056806;28;20055;-61
2023/05/10 01:00:19;;;;;;;27.00;16.02;;;13.50;99.90;;;;;;5056214;28;20033;-60
2023/05/10 01:02:46;;;;;;;25.40;16.38;;;13.60;99.90;;;;;;5056328;28;20045;-60
2023/05/10 01:05:12;;;;;;;26.60;17.17;;;13.60;99.90;;;;;;5072119;28;20124;-60
2023/05/10 01:07:39;;;;;;;27.83;16.30;;;13.50;99.90;;;;;;5055486;28;20037;-61
2023/05/10 01:10:06;;;;;;;29.90;18.02;;;13.30;99.90;;;;;;5058825;28;20324;-63
2023/05/10 01:12:39;;;;;;;30.45;19.05;;;13.20;99.90;;;;;;5059695;28;20036;-61
2023/05/10 01:15:08;;;;;;;29.50;18.20;;;13.10;99.90;;;;;;5059747;28;20392;-61
2023/05/10 01:17:36;;;;;;;32.47;19.50;;;13.10;99.90;;;;;;5060099;28;20063;-62
2023/05/10 01:20:02;;;;;;;39.60;21.20;;;13.10;99.90;;;;;;5075323;28;20037;-62
2023/05/10 01:22:55;;;;;;;33.88;20.15;;;13.20;99.90;;;;;;5059964;28;20060;-63
2023/05/10 01:25:49;;;;;;;32.97;19.95;;;13.10;99.90;;;;;;5075379;28;20017;-61
2023/05/10 01:28:47;;;;;;;34.35;20.98;;;13.10;99.90;;;;;;5059431;28;20025;-64
2023/05/10 01:31:35;;;;;;;35.70;20.75;;;13.10;99.90;;;;;;5058635;28;20040;-64
2023/05/10 01:34:06;;;;;;;31.95;20.10;;;13.20;99.90;;;;;;5059267;28;20408;-64
2023/05/10 01:36:48;;;;;;;35.30;20.17;;;13.10;99.90;;;;;;5059809;28;20032;-63
2023/05/10 01:39:23;;;;;;;32.50;20.23;;;13.10;99.90;;;;;;5059146;28;20029;-65
2023/05/10 01:41:54;;;;;;;37.22;22.33;;;13.20;99.90;;;;;;5059178;28;20027;-65
2023/05/10 01:44:41;;;;;;;38.05;21.98;;;13.40;99.90;;;;;;5059177;28;20029;-64
2023/05/10 01:47:10;;;;;;;34.65;20.65;;;13.50;99.90;;;;;;5058428;28;20029;-63
2023/05/10 01:50:01;;;;;;;31.90;20.20;;;13.60;99.90;;;;;;5058338;28;20059;-63
2023/05/10 01:52:33;;;;;;;33.83;20.08;;;13.60;99.90;;;;;;5058969;28;20031;-64
2023/05/10 01:55:04;;;;;;;29.27;18.80;;;13.70;99.90;;;;;;5074973;28;20051;-64
2023/05/10 01:57:35;;;;;;;31.75;19.27;;;13.70;99.90;;;;;;5075201;28;20032;-64
2023/05/10 02:00:04;;;;;;;30.20;19.38;;;13.70;99.90;;;;;;5074691;28;20036;-64
2023/05/10 02:02:44;;;;;;;30.67;18.45;;;13.70;99.90;;;;;;5073453;28;20040;-63
2023/05/10 02:05:13;;;;;;;25.85;17.55;;;13.80;99.90;;;;;;5074557;28;20136;-62
2023/05/10 02:07:40;;;;;;;30.48;17.35;;;13.90;99.90;;;;;;5058779;28;20037;-64
2023/05/10 02:10:09;;;;;;;32.33;17.58;;;13.90;99.90;;;;;;5058702;28;20024;-65
2023/05/10 02:12:42;;;;;;;27.77;17.77;;;13.80;99.90;;;;;;5057924;28;20032;-65
2023/05/10 02:15:10;;;;;;;25.85;16.50;;;13.90;99.90;;;;;;5058617;28;20067;-63
2023/05/10 02:17:37;;;;;;;31.17;17.55;;;13.90;99.90;;;;;;5057851;28;20033;-66
2023/05/10 02:20:06;;;;;;;31.27;17.25;;;13.90;99.90;;;;;;5073467;28;20033;-64
2023/05/10 02:22:33;;;;;;;31.05;17.35;;;14.00;99.90;;;;;;5074089;28;20025;-65
2023/05/10 02:25:00;;;;;;;25.17;16.88;;;13.90;99.90;;;;;;5058518;28;20379;-65
2023/05/10 02:27:29;;;;;;;28.92;17.92;;;13.90;99.90;;;;;;5041076;28;20058;-66
2023/05/10 02:29:56;;;;;;;30.38;18.25;;;13.90;99.90;;;;;;5074272;28;20041;-64
2023/05/10 02:32:24;;;;;;;30.58;18.42;;;13.90;99.90;;;;;;5058668;28;20043;-65
2023/05/10 02:34:52;;;;;;;30.73;19.40;;;13.90;99.90;;;;;;5058170;28;20435;-62
2023/05/10 02:37:22;;;;;;;32.60;19.48;;;13.70;99.90;;;;;;5057587;28;20048;-64
2023/05/10 02:39:50;;;;;;;31.48;19.58;;;13.80;99.90;;;;;;5058005;28;20049;-67
2023/05/10 02:42:19;;;;;;;32.42;19.58;;;13.90;99.90;;;;;;5058301;28;20284;-66
2023/05/10 02:44:50;;;;;;;32.00;19.35;;;13.70;99.90;;;;;;5058317;28;20384;-67
2023/05/10 02:47:17;;;;;;;32.78;19.45;;;13.70;99.90;;;;;;5073722;28;20033;-65
2023/05/10 02:49:43;;;;;;;34.53;21.92;;;13.60;99.90;;;;;;5057902;28;20068;-68
2023/05/10 02:52:10;;;;;;;33.95;20.90;;;13.80;99.90;;;;;;5073756;28;20448;-70
2023/05/10 02:54:50;;;;;;;37.03;22.52;;;13.70;99.90;;;;;;5073669;28;20082;-71
2023/05/10 02:57:20;;;;;;;35.92;22.60;;;13.80;99.90;;;;;;5057006;28;20025;-70
2023/05/10 02:59:46;;;;;;;39.90;24.67;;;13.80;99.90;;;;;;5073621;28;20339;-70
2023/05/10 03:02:15;;;;;;;45.70;25.25;;;13.70;99.90;;;;;;5073539;28;20029;-68
2023/05/10 03:04:41;;;;;;;62.72;33.40;;;13.60;99.90;;;;;;5073169;28;20067;-68
2023/05/10 03:07:08;;;;;;;72.22;37.13;;;13.50;99.90;;;;;;5073562;28;20029;-70
2023/05/10 03:09:34;;;;;;;97.38;45.80;;;13.60;99.90;;;;;;5073583;28;20265;-71
2023/05/10 03:12:25;;;;;;;121.75;56.17;;;13.60;99.90;;;;;;5056777;28;20068;-68
2023/05/10 03:14:57;;;;;;;124.22;57.95;;;13.60;99.90;;;;;;5057671;28;20116;-70
2023/05/10 03:17:36;;;;;;;122.13;57.90;;;13.70;99.90;;;;;;5073624;28;20154;-67
2023/05/10 03:20:18;;;;;;;122.00;57.35;;;13.70;99.90;;;;;;5072985;28;20028;-67
2023/05/10 03:23:04;;;;;;;108.22;53.45;;;13.70;99.90;;;;;;5057360;28;20394;-66
2023/05/10 03:25:31;;;;;;;105.35;51.75;;;13.60;99.90;;;;;;5072805;28;20165;-69
2023/05/10 03:27:59;;;;;;;110.35;51.65;;;13.60;99.90;;;;;;5056420;28;20300;-67
2023/05/10 03:30:25;;;;;;;89.53;44.30;;;13.60;99.90;;;;;;5056450;28;20075;-68
2023/05/10 03:32:51;;;;;;;78.22;38.80;;;13.70;99.90;;;;;;5039473;28;20029;-66
2023/05/10 03:35:18;;;;;;;71.38;36.03;;;13.70;99.90;;;;;;5057173;28;20037;-64
2023/05/10 03:37:44;;;;;;;61.85;33.22;;;13.50;99.90;;;;;;5056214;28;20331;-66
2023/05/10 03:40:10;;;;;;;63.60;33.63;;;13.50;99.90;;;;;;5072864;28;20205;-64
2023/05/10 03:42:38;;;;;;;57.30;31.10;;;13.50;99.90;;;;;;5039990;28;20033;-66
2023/05/10 03:45:05;;;;;;;59.78;31.08;;;13.50;99.90;;;;;;5056936;28;20056;-67
2023/05/10 03:47:32;;;;;;;58.85;30.92;;;13.50;99.90;;;;;;5056161;28;20044;-65
2023/05/10 03:49:58;;;;;;;58.20;31.85;;;13.60;99.90;;;;;;5072591;28;20442;-65
2023/05/10 03:52:25;;;;;;;61.88;32.47;;;13.50;99.90;;;;;;5072726;28;20041;-67
2023/05/10 03:54:51;;;;;;;62.33;31.58;;;13.50;99.90;;;;;;5056102;28;20028;-67
2023/05/10 03:57:16;;;;;;;65.63;32.85;;;13.50;99.90;;;;;;5072685;28;20029;-62
2023/05/10 03:59:42;;;;;;;65.15;32.15;;;13.60;99.90;;;;;;5056029;28;20388;-64
2023/05/10 04:02:08;;;;;;;64.68;32.17;;;13.50;99.90;;;;;;5057166;28;20112;-63
2023/05/10 04:04:36;;;;;;;65.90;32.20;;;13.50;99.90;;;;;;5056114;28;20045;-66
2023/05/10 04:07:02;;;;;;;63.55;32.60;;;13.50;99.90;;;;;;5072686;28;20029;-63
2023/05/10 04:09:28;;;;;;;67.97;33.05;;;13.60;99.90;;;;;;5072583;28;20029;-62
2023/05/10 04:11:54;;;;;;;60.45;30.65;;;13.60;99.90;;;;;;5056565;28;20029;-62
2023/05/10 04:14:20;;;;;;;65.55;32.25;;;13.40;99.90;;;;;;5055765;28;20116;-62
2023/05/10 04:16:45;;;;;;;71.13;33.97;;;13.40;99.90;;;;;;5072240;28;20036;-62
2023/05/10 04:19:11;;;;;;;66.90;32.70;;;13.40;99.90;;;;;;5056251;28;20068;-60
2023/05/10 04:21:37;;;;;;;63.33;30.80;;;13.40;99.90;;;;;;5056480;28;20047;-62
2023/05/10 04:24:03;;;;;;;68.10;31.52;;;13.30;99.90;;;;;;5055955;28;20061;-62
2023/05/10 04:26:29;;;;;;;64.72;31.05;;;13.40;99.90;;;;;;5056476;28;20033;-62
2023/05/10 04:28:55;;;;;;;68.95;32.53;;;13.30;99.90;;;;;;5056505;28;20033;-62
2023/05/10 04:31:21;;;;;;;60.97;29.83;;;13.30;99.90;;;;;;5055752;28;20102;-62
2023/05/10 04:33:47;;;;;;;61.17;30.52;;;13.10;99.90;;;;;;5056278;28;20033;-60
2023/05/10 04:36:12;;;;;;;55.85;28.13;;;13.20;99.90;;;;;;5056372;28;20055;-61
2023/05/10 04:38:38;;;;;;;55.58;28.70;;;13.30;99.90;;;;;;5056498;28;20041;-60
2023/05/10 04:41:08;;;;;;;52.03;26.70;;;13.30;99.90;;;;;;5055627;28;20151;-62
2023/05/10 04:43:36;;;;;;;51.28;25.92;;;13.40;99.90;;;;;;5056776;28;20111;-59
2023/05/10 04:46:02;;;;;;;49.13;25.23;;;13.30;99.90;;;;;;5060218;28;20056;-60
2023/05/10 04:48:28;;;;;;;51.75;26.17;;;13.30;99.90;;;;;;5060144;28;20039;-60
2023/05/10 04:50:54;;;;;;;55.03;25.90;;;13.30;99.90;;;;;;5060141;28;20025;-62
2023/05/10 04:53:20;;;;;;;47.25;25.27;;;13.30;99.90;;;;;;5060152;28;20033;-59
2023/05/10 04:55:46;;;;;;;52.80;27.17;;;13.20;99.90;;;;;;5060041;28;20040;-59
2023/05/10 04:58:12;;;;;;;48.05;25.15;;;13.10;99.90;;;;;;5059885;28;20047;-58
2023/05/10 05:00:38;;;;;;;47.70;25.35;;;13.10;99.90;;;;;;5059924;28;20315;-60
2023/05/10 05:03:04;;;;;;;53.08;27.55;;;13.00;99.90;;;;;;5059881;28;20031;-60
2023/05/10 05:05:30;;;;;;;50.88;27.23;;;13.20;99.90;;;;;;5059593;28;20136;-60
2023/05/10 05:07:56;;;;;;;51.42;28.02;;;13.30;99.90;;;;;;5060042;28;20335;-59
2023/05/10 05:10:22;;;;;;;56.15;29.33;;;13.30;99.90;;;;;;5075531;28;20396;-60
2023/05/10 05:12:48;;;;;;;52.58;27.33;;;13.40;99.90;;;;;;5075583;28;20300;-59
2023/05/10 05:15:16;;;;;;;55.03;28.95;;;13.40;99.90;;;;;;5059707;28;20053;-59
2023/05/10 05:17:42;;;;;;;52.63;28.40;;;13.50;99.90;;;;;;5059686;28;20040;-60
2023/05/10 05:20:09;;;;;;;52.10;28.38;;;13.50;99.90;;;;;;5059483;28;20063;-60
2023/05/10 05:22:38;;;;;;;49.92;28.27;;;13.70;99.90;;;;;;5058660;28;20099;-61
2023/05/10 05:25:05;;;;;;;50.70;28.58;;;14.00;99.90;;;;;;5059590;28;20436;-61
2023/05/10 05:27:31;;;;;;;50.53;28.55;;;14.10;99.90;;;;;;5059324;28;20035;-60
2023/05/10 05:29:58;;;;;;;48.90;28.05;;;14.20;99.90;;;;;;5075709;28;20095;-62
2023/05/10 05:32:24;;;;;;;44.35;27.98;;;14.20;99.90;;;;;;5059050;28;20036;-61
2023/05/10 05:34:51;;;;;;;45.33;27.38;;;14.30;99.90;;;;;;5074991;28;20389;-62
2023/05/10 05:37:24;;;;;;;50.30;28.70;;;14.30;99.90;;;;;;5059072;28;20033;-61
2023/05/10 05:39:50;;;;;;;48.70;27.73;;;14.30;99.90;;;;;;5059189;28;20102;-60
2023/05/10 05:42:17;;;;;;;45.55;27.95;;;14.40;99.90;;;;;;5059540;28;20408;-62
2023/05/10 05:44:43;;;;;;;47.45;28.42;;;14.30;99.90;;;;;;5059468;28;20153;-61
2023/05/10 05:47:10;;;;;;;47.95;28.88;;;14.30;99.90;;;;;;5058282;28;20047;-65
2023/05/10 05:49:36;;;;;;;51.58;30.98;;;14.50;99.90;;;;;;5058936;28;20048;-63
2023/05/10 05:52:03;;;;;;;46.42;28.88;;;14.40;99.90;;;;;;5058306;28;20116;-61
2023/05/10 05:54:30;;;;;;;45.72;28.38;;;14.40;99.90;;;;;;5059047;28;20095;-64
2023/05/10 05:56:57;;;;;;;41.53;26.45;;;14.20;99.90;;;;;;5074797;28;20400;-65
2023/05/10 05:59:23;;;;;;;43.33;27.08;;;14.40;99.90;;;;;;5058002;28;20139;-66
2023/05/10 06:01:49;;;;;;;40.13;26.27;;;14.50;99.90;;;;;;5074841;28;20056;-66
2023/05/10 06:04:15;;;;;;;36.85;24.90;;;14.30;99.90;;;;;;5058540;28;20044;-67
2023/05/10 06:06:42;;;;;;;36.13;24.52;;;14.40;99.90;;;;;;5058029;28;20029;-67
2023/05/10 06:09:08;;;;;;;37.28;23.23;;;14.50;99.90;;;;;;5074685;28;20025;-60
2023/05/10 06:11:34;;;;;;;35.53;23.25;;;14.50;99.90;;;;;;5058625;28;20381;-63
2023/05/10 06:14:01;;;;;;;37.08;24.23;;;14.50;99.90;;;;;;5058660;28;20052;-65
2023/05/10 06:16:27;;;;;;;33.85;24.02;;;14.30;99.90;;;;;;5057881;28;20041;-62
2023/05/10 06:18:53;;;;;;;33.90;22.77;;;14.30;99.90;;;;;;5058395;28;20032;-62
2023/05/10 06:21:19;;;;;;;30.58;21.48;;;14.30;99.90;;;;;;5074360;28;20296;-66
2023/05/10 06:23:45;;;;;;;31.15;21.42;;;14.30;99.90;;;;;;5074266;28;20105;-65
2023/05/10 06:26:11;;;;;;;34.83;22.25;;;14.70;99.90;;;;;;5058349;28;20300;-63
2023/05/10 06:28:39;;;;;;;29.02;21.10;;;14.70;99.90;;;;;;5058277;28;20029;-62
2023/05/10 06:31:06;;;;;;;33.38;20.85;;;14.80;99.90;;;;;;5058249;28;20025;-60
2023/05/10 06:33:32;;;;;;;31.27;22.10;;;14.80;99.90;;;;;;5057427;28;20301;-59
2023/05/10 06:35:58;;;;;;;29.23;20.80;;;15.10;99.90;;;;;;5058120;28;20037;-62
2023/05/10 06:38:24;;;;;;;32.60;23.20;;;15.30;99.90;;;;;;5057945;28;20476;-60
2023/05/10 06:40:50;;;;;;;40.42;26.50;;;15.40;99.90;;;;;;5057224;28;20119;-59
2023/05/10 06:43:16;;;;;;;41.35;27.83;;;15.40;99.90;;;;;;5057992;28;20078;-60
2023/05/10 06:45:42;;;;;;;39.72;27.77;;;15.50;99.90;;;;;;5057973;28;20041;-62
2023/05/10 06:48:08;;;;;;;38.95;27.80;;;15.40;99.90;;;;;;5073704;28;20048;-61
2023/05/10 06:50:34;;;;;;;42.38;26.38;;;15.40;99.90;;;;;;5057024;28;20033;-68
2023/05/10 06:53:01;;;;;;;41.33;27.63;;;15.30;99.90;;;;;;5073697;28;20040;-62
2023/05/10 06:55:27;;;;;;;40.72;26.33;;;15.30;99.90;;;;;;5073658;28;20078;-60
2023/05/10 06:57:53;;;;;;;40.80;26.35;;;15.00;99.90;;;;;;5056938;28;20033;-62
2023/05/10 07:00:20;;;;;;;40.38;25.98;;;14.90;99.90;;;;;;5073561;28;20036;-60
2023/05/10 07:02:46;;;;;;;39.63;27.33;;;15.10;99.90;;;;;;5073504;28;20033;-60
2023/05/10 07:05:13;;;;;;;36.45;26.13;;;15.30;99.90;;;;;;5073415;28;20423;-61
2023/05/10 07:07:39;;;;;;;37.13;24.10;;;15.20;99.90;;;;;;5073196;28;20427;-58
2023/05/10 07:10:06;;;;;;;38.58;25.05;;;15.10;99.90;;;;;;5057432;28;20032;-60
2023/05/10 07:12:31;;;;;;;35.45;24.83;;;15.10;99.90;;;;;;5057498;28;20033;-61
2023/05/10 07:14:57;;;;;;;32.88;24.20;;;15.20;99.90;;;;;;5057377;28;20063;-61
2023/05/10 07:17:23;;;;;;;33.70;24.85;;;15.30;99.90;;;;;;5057491;28;20044;-59
2023/05/10 07:19:49;;;;;;;39.53;26.98;;;15.20;99.90;;;;;;5057704;28;20029;-63
2023/05/10 07:22:16;;;;;;;38.75;27.13;;;15.50;99.90;;;;;;5073548;28;20040;-63
2023/05/10 07:24:42;;;;;;;35.28;26.17;;;15.60;99.90;;;;;;5073152;28;20118;-61
2023/05/10 07:27:08;;;;;;;32.88;24.50;;;15.60;99.90;;;;;;5040330;28;20427;-62
2023/05/10 07:29:35;;;;;;;30.23;23.38;;;15.80;99.60;;;;;;5073143;28;20058;-61
2023/05/10 07:32:01;;;;;;;31.00;23.35;;;15.70;99.90;;;;;;5057116;28;20095;-62
2023/05/10 07:34:28;;;;;;;30.95;23.67;;;15.60;98.80;;;;;;5057059;28;20033;-61
2023/05/10 07:36:54;;;;;;;28.98;22.65;;;15.70;99.90;;;;;;5057001;28;20039;-60
2023/05/10 07:39:23;;;;;;;30.23;22.92;;;15.80;98.20;;;;;;5056856;28;20377;-63
2023/05/10 07:41:48;;;;;;;30.10;23.30;;;16.00;98.90;;;;;;5056951;28;20043;-59
2023/05/10 07:44:14;;;;;;;32.25;23.88;;;16.00;99.80;;;;;;5056309;28;20208;-61
2023/05/10 07:46:40;;;;;;;34.55;23.20;;;16.20;96.40;;;;;;5056863;28;20112;-63
2023/05/10 07:49:06;;;;;;;26.58;21.40;;;16.50;95.10;;;;;;5056722;28;20033;-60
2023/05/10 07:51:32;;;;;;;19.40;15.25;;;16.60;93.80;;;;;;5056185;28;20094;-65
2023/05/10 07:53:58;;;;;;;21.33;15.77;;;16.50;84.30;;;;;;5056714;28;20028;-61
2023/05/10 07:56:26;;;;;;;23.15;17.20;;;16.40;90.60;;;;;;5072730;28;20041;-60
2023/05/10 07:58:52;;;;;;;21.90;17.27;;;16.50;93.60;;;;;;5056687;28;20094;-64
2023/05/10 08:01:18;;;;;;;20.50;16.77;;;16.70;88.40;;;;;;5055923;28;20025;-61
2023/05/10 08:03:44;;;;;;;23.80;18.17;;;16.50;88.10;;;;;;5056511;28;20044;-65
2023/05/10 08:06:10;;;;;;;22.85;17.80;;;16.30;94.20;;;;;;5072592;28;20093;-63
2023/05/10 08:08:36;;;;;;;21.42;18.05;;;15.80;95.70;;;;;;5057194;28;20037;-61
2023/05/10 08:11:02;;;;;;;24.33;19.75;;;15.60;99.90;;;;;;5072571;28;20420;-61
2023/05/10 08:13:27;;;;;;;30.02;23.45;;;15.80;99.90;;;;;;5056624;28;20411;-61
2023/05/10 08:15:53;;;;;;;35.33;25.48;;;16.00;98.00;;;;;;5056934;28;20058;-63
2023/05/10 08:18:19;;;;;;;28.33;22.25;;;16.40;93.40;;;;;;5058709;28;20127;-62
2023/05/10 08:20:45;;;;;;;21.73;17.23;;;16.50;91.20;;;;;;5061064;28;20071;-63
2023/05/10 08:23:14;;;;;;;24.17;17.95;;;16.70;89.10;;;;;;5060667;28;20032;-65
2023/05/10 08:25:40;;;;;;;28.08;20.15;;;16.90;85.00;;;;;;5060002;28;20094;-62
2023/05/10 08:28:06;;;;;;;26.58;20.83;;;17.20;74.20;;;;;;5060726;28;20035;-66
2023/05/10 08:30:32;;;;;;;28.02;21.05;;;17.40;61.70;;;;;;5060539;28;20108;-63
2023/05/10 08:32:58;;;;;;;25.65;19.70;;;17.50;56.50;;;;;;5076394;28;20043;-68
2023/05/10 08:35:24;;;;;;;26.27;20.30;;;17.30;47.00;;;;;;5076446;28;20029;-62
2023/05/10 08:37:51;;;;;;;25.65;19.92;;;16.80;70.20;;;;;;5060425;28;20361;-64
2023/05/10 08:40:20;;;;;;;26.77;21.63;;;17.00;74.90;;;;;;5060266;28;20039;-67
2023/05/10 08:42:55;;;;;;;28.65;21.83;;;17.40;55.60;;;;;;5060263;28;20017;-66
2023/05/10 08:45:24;;;;;;;25.60;20.83;;;17.00;66.60;;;;;;5059593;28;20033;-71
2023/05/10 08:47:51;;;;;;;27.73;21.05;;;17.10;68.30;;;;;;5060236;28;20104;-64
2023/05/10 08:50:20;;;;;;;25.10;20.33;;;17.20;60.90;;;;;;5060007;28;20033;-67
2023/05/10 08:52:48;;;;;;;21.80;17.98;;;17.50;59.00;;;;;;5075965;28;20421;-64
2023/05/10 08:55:15;;;;;;;22.50;17.58;;;17.70;61.60;;;;;;5059807;28;20043;-64
2023/05/10 08:57:41;;;;;;;22.85;17.45;;;17.10;68.90;;;;;;5060021;28;20343;-65
2023/05/10 09:00:08;;;;;;;24.20;16.80;;;16.80;73.10;;;;;;5075753;28;20033;-67
2023/05/10 09:02:35;;;;;;;23.10;17.65;;;16.70;76.50;;;;;;5060384;28;20298;-64
2023/05/10 09:05:01;;;;;;;19.30;15.57;;;16.80;77.80;;;;;;5042585;28;20045;-64
2023/05/10 09:07:27;;;;;;;20.95;16.27;;;16.70;66.60;;;;;;5059571;28;20041;-63
2023/05/10 09:09:54;;;;;;;19.40;15.30;;;16.50;79.20;;;;;;5059761;28;20304;-64
2023/05/10 09:12:20;;;;;;;21.00;16.13;;;16.60;84.80;;;;;;5059648;28;20033;-64
2023/05/10 09:14:46;;;;;;;20.88;15.68;;;16.50;87.90;;;;;;5059672;28;20043;-66
2023/05/10 09:17:13;;;;;;;19.58;15.90;;;16.20;93.10;;;;;;5059532;28;20056;-66
2023/05/10 09:19:38;;;;;;;16.67;14.25;;;16.60;93.30;;;;;;5060106;28;20033;-66
2023/05/10 09:22:04;;;;;;;17.85;14.73;;;16.90;76.10;;;;;;5058818;28;20462;-67
2023/05/10 09:24:30;;;;;;;22.67;15.55;;;16.80;73.60;;;;;;5042651;28;20048;-65
2023/05/10 09:26:58;;;;;;;21.10;15.13;;;16.50;88.30;;;;;;5042201;28;20063;-64
2023/05/10 09:29:24;;;;;;;18.83;14.25;;;16.10;95.30;;;;;;5058779;28;20090;-64
2023/05/10 09:31:56;;;;;;;22.95;14.43;;;15.80;98.60;;;;;;5058897;28;20459;-62
2023/05/10 09:34:32;;;;;;;22.67;15.27;;;15.30;99.90;;;;;;5058591;28;20076;-65
2023/05/10 09:37:04;;;;;;;22.33;15.00;;;15.30;99.90;;;;;;5058624;28;20120;-62
2023/05/10 09:39:34;;;;;;;21.00;14.48;;;15.30;99.90;;;;;;5059312;28;20033;-65
2023/05/10 09:42:04;;;;;;;25.05;14.95;;;15.00;99.90;;;;;;5059027;28;20028;-62
2023/05/10 09:44:32;;;;;;;24.75;16.27;;;15.00;99.90;;;;;;5058552;28;20048;-65
2023/05/10 09:46:58;;;;;;;23.42;14.98;;;15.30;99.90;;;;;;5058322;28;20052;-62
2023/05/10 09:49:24;;;;;;;26.13;16.17;;;15.40;99.90;;;;;;5059128;28;20045;-66
2023/05/10 09:52:03;;;;;;;26.05;15.23;;;15.30;99.90;;;;;;5041622;28;20029;-69
2023/05/10 09:54:29;;;;;;;18.77;13.90;;;15.50;99.90;;;;;;5058884;28;20086;-63
2023/05/10 09:56:55;;;;;;;18.98;12.80;;;15.70;99.90;;;;;;5059020;28;20041;-68
2023/05/10 09:59:21;;;;;;;25.58;13.93;;;15.40;99.90;;;;;;5058119;28;20065;-66
2023/05/10 10:01:57;;;;;;;20.40;12.68;;;15.20;99.90;;;;;;5025062;28;20137;-68
2023/05/10 10:04:23;;;;;;;25.27;13.15;;;14.90;99.90;;;;;;5058519;28;20067;-64
2023/05/10 10:07:00;;;;;;;17.70;12.10;;;14.80;99.90;;;;;;5074576;28;20397;-69
2023/05/10 10:09:27;;;;;;;23.92;12.93;;;15.10;99.90;;;;;;5058676;28;20037;-64
2023/05/10 10:11:54;;;;;;;20.02;12.10;;;14.80;99.90;;;;;;5058723;28;20384;-64
2023/05/10 10:14:21;;;;;;;22.30;12.90;;;14.90;99.90;;;;;;5058543;28;20068;-65
2023/05/10 10:16:47;;;;;;;19.95;12.80;;;15.10;99.90;;;;;;5058470;28;20095;-65
2023/05/10 10:19:13;;;;;;;22.35;12.23;;;15.30;99.90;;;;;;5057633;28;20345;-66
2023/05/10 10:21:39;;;;;;;19.42;11.63;;;15.70;99.90;;;;;;5074634;28;20112;-65
2023/05/10 10:24:05;;;;;;;19.88;10.88;;;16.00;99.90;;;;;;5058364;28;20079;-65
2023/05/10 10:26:34;;;;;;;20.98;12.35;;;16.90;98.10;;;;;;5058631;28;20040;-63
2023/05/10 10:29:14;;;;;;;17.08;11.20;;;17.10;90.50;;;;;;5058238;28;20047;-64
2023/05/10 10:31:47;;;;;;;17.33;11.52;;;16.90;92.80;;;;;;5074076;28;20044;-66
2023/05/10 10:34:29;;;;;;;14.48;10.82;;;16.50;95.60;;;;;;5074098;28;20104;-67
2023/05/10 10:36:57;;;;;;;18.23;11.45;;;16.70;96.60;;;;;;5058073;28;20293;-62
2023/05/10 10:39:27;;;;;;;16.98;10.95;;;17.20;91.70;;;;;;5057977;28;20083;-62
2023/05/10 10:41:54;;;;;;;15.90;10.70;;;16.60;94.50;;;;;;5072934;28;20029;-65
2023/05/10 10:44:40;;;;;;;17.08;11.13;;;16.70;97.00;;;;;;5058030;28;20053;-63
2023/05/10 10:47:13;;;;;;;15.57;10.90;;;16.10;99.20;;;;;;5057981;28;20029;-60
2023/05/10 10:49:39;;;;;;;16.45;11.20;;;15.80;99.90;;;;;;5058526;28;20094;-62
2023/05/10 10:52:28;;;;;;;17.13;10.90;;;15.90;99.90;;;;;;5073805;28;20029;-64
2023/05/10 10:55:11;;;;;;;14.23;11.05;;;15.70;99.90;;;;;;5058499;28;20029;-65
2023/05/10 10:57:45;;;;;;;17.15;10.80;;;15.80;99.90;;;;;;5057809;28;20041;-65
2023/05/10 11:00:40;;;;;;;18.92;10.85;;;15.70;99.90;;;;;;5057625;28;20079;-64
2023/05/10 11:03:13;;;;;;;17.20;10.77;;;15.30;99.90;;;;;;5036261;28;20408;-67
2023/05/10 11:05:44;;;;;;;19.17;10.70;;;15.40;99.90;;;;;;5040341;28;20088;-65
2023/05/10 11:08:38;;;;;;;15.90;10.50;;;15.40;99.90;;;;;;5057559;28;20029;-64
2023/05/10 11:11:09;;;;;;;17.42;10.77;;;15.50;99.90;;;;;;5057448;28;20108;-65
2023/05/10 11:13:49;;;;;;;17.80;10.57;;;15.60;99.90;;;;;;5057458;28;20025;-67
2023/05/10 11:16:23;;;;;;;14.18;10.05;;;15.60;99.90;;;;;;5073407;28;20411;-62
2023/05/10 11:18:53;;;;;;;13.70;10.43;;;15.20;99.90;;;;;;5057385;28;20311;-63
2023/05/10 11:21:19;;;;;;;16.10;10.45;;;15.00;99.90;;;;;;5057375;28;20029;-64
2023/05/10 11:23:48;;;;;;;16.50;10.23;;;15.10;99.90;;;;;;5040005;28;20336;-60
2023/05/10 11:26:14;;;;;;;16.15;10.55;;;14.90;99.90;;;;;;5057216;28;20025;-62
2023/05/10 11:28:50;;;;;;;16.88;10.93;;;14.80;99.90;;;;;;5057156;28;20029;-62
2023/05/10 11:31:20;;;;;;;15.20;10.48;;;14.70;99.90;;;;;;5057189;28;20052;-62
2023/05/10 11:33:54;;;;;;;15.13;10.40;;;14.80;99.90;;;;;;5057206;28;20415;-63
2023/05/10 11:36:33;;;;;;;14.00;11.30;;;14.90;99.90;;;;;;5057131;28;20403;-63
2023/05/10 11:38:59;;;;;;;15.48;11.18;;;14.90;99.90;;;;;;5057044;28;20107;-63
2023/05/10 11:41:27;;;;;;;17.17;11.68;;;14.60;99.90;;;;;;5057015;28;20047;-63
2023/05/10 11:43:54;;;;;;;21.45;11.82;;;14.50;99.90;;;;;;5057006;28;20035;-62
2023/05/10 11:46:29;;;;;;;16.10;11.30;;;14.40;99.90;;;;;;5056993;28;20068;-61
2023/05/10 11:49:03;;;;;;;17.05;11.65;;;14.50;99.90;;;;;;5057017;28;20082;-62
2023/05/10 11:51:32;;;;;;;16.00;11.35;;;14.60;99.90;;;;;;5056580;28;20075;-63
2023/05/10 11:53:58;;;;;;;15.85;10.98;;;14.60;99.90;;;;;;5072576;28;20033;-62
2023/05/10 11:56:25;;;;;;;15.23;10.48;;;14.80;99.90;;;;;;5056015;28;20040;-62
2023/05/10 11:58:56;;;;;;;14.32;11.02;;;14.90;99.90;;;;;;5056666;28;20048;-61
2023/05/10 12:01:26;;;;;;;16.20;11.10;;;14.90;99.90;;;;;;5056072;28;20086;-63
2023/05/10 12:03:54;;;;;;;15.23;10.27;;;14.80;99.90;;;;;;5056575;28;20045;-63
2023/05/10 12:06:21;;;;;;;12.35;10.27;;;14.90;99.90;;;;;;5056488;28;20300;-62
2023/05/10 12:08:52;;;;;;;14.65;10.40;;;15.20;99.90;;;;;;5056750;28;20029;-65
2023/05/10 12:11:18;;;;;;;13.18;10.65;;;15.20;99.90;;;;;;5072647;28;20048;-62
2023/05/10 12:13:47;;;;;;;42.17;12.55;;;15.10;99.90;;;;;;5073191;28;20037;-63
2023/05/10 12:16:15;;;;;;;47.95;13.50;;;15.00;99.90;;;;;;5057059;28;20025;-66
2023/05/10 12:18:42;;;;;;;16.88;10.30;;;15.30;99.90;;;;;;5072437;28;20037;-63
2023/05/10 12:21:12;;;;;;;34.17;13.10;;;15.50;99.90;;;;;;5072627;28;20123;-64
2023/05/10 12:23:39;;;;;;;39.80;13.10;;;15.40;99.90;;;;;;5056660;28;20320;-62
2023/05/10 12:26:05;;;;;;;14.20;9.82;;;15.40;99.90;;;;;;5055763;28;20110;-64
2023/05/10 12:28:32;;;;;;;15.20;10.50;;;15.30;99.90;;;;;;5039158;28;20044;-62
2023/05/10 12:31:02;;;;;;;15.98;10.50;;;15.30;99.90;;;;;;5056421;28;20061;-62
2023/05/10 12:33:39;;;;;;;12.02;10.30;;;15.40;99.90;;;;;;5056380;28;20416;-66